Latest Coastal Weather Observations for Croker Island Airport

IDD60701

Issued at 5:31 pm CST Friday 3 July 2015 (issued every 10 minutes, with the page automatically refreshed every 10 minutes)

About coastal observations | Map of coastal stations | Coastal observations for NT | Marine services | Other Formats
Station Details ID: 014308 Name: CROKER ISLAND AIRPORT Lat: -11.16 Lon: 132.48 Height: 9.2 m
Data from the previous 72 hours. | See also: Recent months for locations in Northern Territory
Date/Time
CST
Temp

°C
Wind Pressure Rain
since 9am
mm
Weather Cloud Vis
km
Sea
Height
m
Swell
Dir
 
Speed
knots
Gust
knots
hPa Trend Height
m
Period
s
Dir
03/05:30pm 26.2 ENE 8 12 1012.2 - 0.0 - - - - - - -
03/05:00pm 26.3 ENE 11 16 1012.0 - 0.0 - - - - - - -
03/04:30pm 28.1 ENE 12 19 1012.0 - 0.0 - - - - - - -
03/04:00pm 28.4 ENE 11 18 1012.2 - 0.0 - - - - - - -
03/03:30pm 27.8 E 11 18 1012.3 - 0.0 - - - - - - -
03/03:00pm 28.0 E 13 18 1012.6 - 0.0 - - - - - - -
03/02:30pm 28.5 ESE 13 21 1012.9 - 0.0 - - - - - - -
03/02:00pm 28.2 ESE 15 22 1013.5 - 0.0 - - - - - - -
03/01:30pm 27.9 ESE 13 20 1014.0 - 0.0 - - - - - - -
03/01:00pm 27.9 ESE 16 23 1014.3 - 0.0 - - - - - - -
03/12:30pm 27.4 ESE 15 27 1014.8 - 0.0 - - - - - - -
03/12:21pm 27.6 E 16 27 1014.9 - 0.0 - - - - - - -
03/12:00pm 27.8 ESE 14 21 1015.2 - 0.0 - - - - - - -
03/11:30am 27.4 E 12 19 1015.7 - 0.0 - - - - - - -
03/11:00am 26.9 ESE 13 19 1016.0 - 0.0 - - - - - - -
03/10:30am 26.6 E 11 18 1016.1 - 0.0 - - - - - - -
03/10:00am 26.2 ESE 9 13 1016.2 - 0.0 - - - - - - -
03/09:30am 26.2 ESE 8 12 1016.2 - 0.0 - - - - - - -
03/09:00am 25.3 ESE 7 11 1016.1 - 0.0 - - - - - - -
03/08:30am 24.6 ESE 6 9 1016.0 - 0.0 - - - - - - -
03/08:00am 23.6 ESE 3 6 1015.7 - 0.0 - - - - - - -
03/07:30am 22.0 SE 4 5 1015.4 - 0.0 - - - - - - -
03/07:00am 21.3 ESE 3 4 1015.0 - 0.0 - - - - - - -
03/06:30am 21.4 ESE 3 4 1014.7 - 0.0 - - - - - - -
03/06:00am 21.5 E 2 3 1014.4 - 0.0 - - - - - - -
03/05:30am 22.3 ESE 3 5 1014.3 - 0.0 - - - - - - -
03/05:00am 22.6 E 5 7 1014.1 - 0.0 - - - - - - -
03/04:30am 22.9 ESE 6 10 1014.1 - 0.0 - - - - - - -
03/04:00am 23.4 SE 6 11 1014.3 - 0.0 - - - - - - -
03/03:30am 23.9 SE 6 10 1014.4 - 0.0 - - - - - - -
03/03:00am 24.3 SE 7 11 1014.4 - 0.0 - - - - - - -
03/02:30am 25.1 ESE 8 13 1014.7 - 0.0 - - - - - - -
03/02:00am 25.3 ESE 7 10 1014.9 - 0.0 - - - - - - -
03/01:30am 25.5 ESE 7 11 1015.0 - 0.0 - - - - - - -
03/01:00am 25.5 E 7 10 1015.0 - 0.0 - - - - - - -
03/12:30am 25.8 E 7 10 1015.3 - 0.0 - - - - - - -
03/12:00am 25.7 E 6 9 1015.2 - 0.0 - - - - - - -
 
Date/Time
CST
Temp

°C
Wind Pressure Rain
since 9am
mm
Weather Cloud Vis
km
Sea
Height
m
Swell
Dir
 
Speed
knots
Gust
knots
hPa Trend Height
m
Period
s
Dir
02/11:30pm 25.6 E 6 7 1015.3 - 0.0 - - - - - - -
02/11:00pm 25.4 E 4 6 1015.5 - 0.0 - - - - - - -
02/10:30pm 25.3 ENE 3 4 1015.6 - 0.0 - - - - - - -
02/10:00pm 25.4 ENE 4 5 1015.6 - 0.0 - - - - - - -
02/09:30pm 25.6 ENE 5 9 1015.3 - 0.0 - - - - - - -
02/09:00pm 25.8 E 5 9 1015.1 - 0.0 - - - - - - -
02/08:30pm 25.8 ENE 7 10 1015.0 - 0.0 - - - - - - -
02/08:00pm 25.6 ENE 7 9 1014.7 - 0.0 - - - - - - -
02/07:30pm 25.7 ENE 8 12 1014.4 - 0.0 - - - - - - -
02/07:00pm 25.7 ENE 8 12 1014.0 - 0.0 - - - - - - -
02/06:30pm 25.9 ENE 8 12 1013.7 - 0.0 - - - - - - -
02/06:00pm 26.2 ENE 10 15 1013.5 - 0.0 - - - - - - -
02/05:30pm 26.7 ENE 10 18 1013.5 - 0.0 - - - - - - -
02/05:00pm 27.3 ENE 12 18 1013.4 - 0.0 - - - - - - -
02/04:30pm 27.1 ENE 14 20 1013.5 - 0.0 - - - - - - -
02/04:00pm 27.2 ENE 15 21 1013.5 - 0.0 - - - - - - -
02/03:30pm 28.1 E 13 21 1013.5 - 0.0 - - - - - - -
02/03:00pm 28.5 E 14 19 1013.6 - 0.0 - - - - - - -
02/02:30pm 28.6 E 16 22 1013.8 - 0.0 - - - - - - -
02/02:00pm 29.4 ESE 14 23 1014.1 - 0.0 - - - - - - -
02/01:30pm 28.7 ESE 18 26 1014.6 - 0.0 - - - - - - -
02/01:23pm 29.1 ESE 15 26 1014.9 - 0.0 - - - - - - -
02/01:00pm 28.6 ESE 17 25 1015.2 - 0.0 - - - - - - -
02/12:30pm 28.4 ESE 15 23 1015.7 - 0.0 - - - - - - -
02/12:00pm 28.5 ESE 14 21 1016.0 - 0.0 - - - - - - -
02/11:30am 28.0 ESE 13 22 1016.3 - 0.0 - - - - - - -
02/11:00am 27.6 ESE 12 16 1016.7 - 0.0 - - - - - - -
02/10:30am 26.8 ESE 9 13 1016.9 - 0.0 - - - - - - -
02/10:00am 26.2 ESE 9 14 1017.1 - 0.0 - - - - - - -
02/09:30am 25.5 ESE 8 12 1017.1 - 0.0 - - - - - - -
02/09:00am 25.0 ESE 8 11 1017.2 - 0.0 - - - - - - -
02/08:30am 24.2 SE 6 9 1016.9 - 0.0 - - - - - - -
02/08:00am 23.8 ESE 5 8 1016.5 - 0.0 - - - - - - -
02/07:30am 23.2 SE 5 8 1016.2 - 0.0 - - - - - - -
02/07:00am 23.3 ESE 6 9 1016.0 - 0.0 - - - - - - -
02/06:30am 23.4 SE 6 10 1015.8 - 0.0 - - - - - - -
02/06:00am 23.3 SE 5 8 1015.6 - 0.0 - - - - - - -
02/05:30am 23.2 SE 5 8 1015.6 - 0.0 - - - - - - -
02/05:00am 23.2 SE 6 9 1015.3 - 0.0 - - - - - - -
02/04:30am 23.1 SE 6 9 1015.1 - 0.0 - - - - - - -
02/04:00am 23.3 SE 6 9 1015.2 - 0.0 - - - - - - -
02/03:30am 23.4 SE 5 9 1015.3 - 0.0 - - - - - - -
02/03:00am 23.2 SE 6 10 1015.4 - 0.0 - - - - - - -
02/02:30am 23.1 ESE 6 11 1015.7 - 0.0 - - - - - - -
02/02:00am 23.6 ESE 9 14 1016.1 - 0.0 - - - - - - -
02/01:30am 24.0 ESE 8 12 1016.2 - 0.0 - - - - - - -
02/01:00am 23.9 ESE 9 14 1016.4 - 0.0 - - - - - - -
02/12:30am 23.8 ESE 9 13 1016.5 - 0.0 - - - - - - -
02/12:00am 23.8 SE 11 16 1016.5 - 0.0 - - - - - - -
 
Date/Time
CST
Temp

°C
Wind Pressure Rain
since 9am
mm
Weather Cloud Vis
km
Sea
Height
m
Swell
Dir
 
Speed
knots
Gust
knots
hPa Trend Height
m
Period
s
Dir
01/11:30pm 23.9 ESE 9 14 1016.6 - 0.0 - - - - - - -
01/11:00pm 23.9 SE 11 18 1016.5 - 0.0 - - - - - - -
01/10:30pm 24.0 SE 8 12 1016.3 - 0.0 - - - - - - -
01/10:00pm 24.3 SE 10 16 1016.3 - 0.0 - - - - - - -
01/09:30pm 24.7 SE 12 19 1016.1 - 0.0 - - - - - - -
01/09:00pm 25.2 SE 10 17 1015.8 - 0.0 - - - - - - -
01/08:30pm 25.6 SE 12 17 1015.5 - 0.0 - - - - - - -
01/08:00pm 25.8 ESE 8 13 1014.8 - 0.0 - - - - - - -
01/07:30pm 26.0 E 7 10 1014.7 - 0.0 - - - - - - -
01/07:00pm 25.4 E 3 5 1014.2 - 0.0 - - - - - - -
01/06:30pm 25.5 ENE 4 5 1013.9 - 0.0 - - - - - - -
01/06:00pm 26.4 ENE 4 6 1013.7 - 0.0 - - - - - - -
01/05:30pm 27.3 ENE 6 8 1013.6 - 0.0 - - - - - - -
01/05:00pm 28.1 E 5 8 1013.5 - 0.0 - - - - - - -
01/04:30pm 28.5 E 9 13 1013.4 - 0.0 - - - - - - -
01/04:00pm 28.8 ENE 7 10 1013.3 - 0.0 - - - - - - -
01/03:30pm 28.6 E 8 12 1013.6 - 0.0 - - - - - - -
01/03:00pm 28.9 E 10 14 1013.8 - 0.0 - - - - - - -
01/02:30pm 29.5 E 10 15 1014.0 - 0.0 - - - - - - -
01/02:00pm 29.6 ENE 10 15 1014.5 - 0.0 - - - - - - -
01/01:30pm 30.1 E 10 17 1015.0 - 0.0 - - - - - - -
01/01:00pm 30.2 SE 8 15 1015.4 - 0.0 - - - - - - -
01/12:30pm 29.8 S 6 10 1015.8 - 0.0 - - - - - - -
01/12:00pm 29.5 S 6 10 1016.3 - 0.0 - - - - - - -
01/11:30am 27.9 SSE 8 11 1016.8 - 0.0 - - - - - - -
01/11:00am 27.7 S 8 12 1017.2 - 0.0 - - - - - - -
01/10:30am 27.0 SSE 8 11 1017.5 - 0.0 - - - - - - -
01/10:00am 26.2 SSE 8 13 1017.6 - 0.0 - - - - - - -
01/09:30am 25.4 SSE 7 11 1017.7 - 0.0 - - - - - - -
01/09:00am 24.8 SSE 5 8 1017.5 - 0.0 - - - - - - -
01/08:30am 24.5 SE 5 7 1017.3 - 0.0 - - - - - - -
01/08:00am 23.7 SE 4 5 1017.0 - 0.0 - - - - - - -
01/07:30am 21.7 ESE 4 5 1016.6 - 0.0 - - - - - - -
01/07:00am 21.3 ESE 4 5 1016.2 - 0.0 - - - - - - -
01/06:30am 21.9 SE 4 5 1015.9 - 0.0 - - - - - - -
01/06:00am 21.5 SE 5 5 1015.8 - 0.0 - - - - - - -
01/05:30am 21.6 ESE 4 5 1015.7 - 0.0 - - - - - - -
01/05:00am 21.8 ESE 3 3 1015.8 - 0.0 - - - - - - -
01/04:30am 21.4 CALM 0 0 1015.7 - 0.0 - - - - - - -
01/04:00am 21.7 E 3 3 1015.8 - 0.0 - - - - - - -
01/03:30am 22.2 ESE 3 4 1015.9 - 0.0 - - - - - - -
01/03:00am 22.7 ENE 5 5 1016.0 - 0.0 - - - - - - -
01/02:30am 22.5 E 4 5 1016.2 - 0.0 - - - - - - -
01/02:00am 23.0 E 4 5 1016.3 - 0.0 - - - - - - -
01/01:30am 23.5 ENE 5 7 1016.4 - 0.0 - - - - - - -
01/01:00am 23.0 ENE 5 5 1016.5 - 0.0 - - - - - - -
01/12:30am 22.4 E 4 5 1016.5 - 0.0 - - - - - - -
01/12:00am 22.3 ESE 3 4 1016.6 - 0.0 - - - - - - -
 
Date/Time
CST
Temp

°C
Wind Pressure Rain
since 9am
mm
Weather Cloud Vis
km
Sea
Height
m
Swell
Dir
 
Speed
knots
Gust
knots
hPa Trend Height
m
Period
s
Dir
30/11:30pm 21.7 SSE 4 5 1016.6 - 0.0 - - - - - - -
30/11:00pm 22.0 E 4 4 1016.5 - 0.0 - - - - - - -
30/10:30pm 22.2 E 4 5 1016.4 - 0.0 - - - - - - -
30/10:00pm 22.3 E 5 5 1016.3 - 0.0 - - - - - - -
30/09:30pm 22.4 ENE 4 5 1016.0 - 0.0 - - - - - - -
30/09:00pm 22.4 E 4 5 1015.7 - 0.0 - - - - - - -
30/08:30pm 22.7 ENE 4 5 1015.2 - 0.0 - - - - - - -
30/08:00pm 23.0 ENE 4 5 1014.9 - 0.0 - - - - - - -
30/07:30pm 23.7 ENE 4 5 1014.4 - 0.0 - - - - - - -
30/07:00pm 24.3 NE 3 4 1014.1 - 0.0 - - - - - - -
30/06:30pm 25.3 NE 3 5 1013.8 - 0.0 - - - - - - -
30/06:00pm 27.0 ENE 5 8 1013.5 - 0.0 - - - - - - -

Other Formats:

Comma delimited format used in spreadsheet applications
http://www.bom.gov.au/fwo/IDD60701/IDD60701.94108.axf

JavaScript Object Notation format (JSON) in row-major order
http://www.bom.gov.au/fwo/IDD60701/IDD60701.94108.json